createdAt,value
2017-09-13T00:00:50.289Z,13.20
2017-09-13T00:03:16.765Z,13.20
2017-09-13T00:05:42.995Z,13.10
2017-09-13T00:08:09.222Z,13.10
2017-09-13T00:10:36.076Z,13.10
2017-09-13T00:13:02.739Z,13.10
2017-09-13T00:15:30.611Z,13.10
2017-09-13T00:17:57.174Z,13.10
2017-09-13T00:20:25.045Z,13.10
2017-09-13T00:22:52.314Z,13.10
2017-09-13T00:25:18.558Z,13.10
2017-09-13T00:27:45.370Z,13.20
2017-09-13T00:30:13.239Z,13.20
2017-09-13T00:32:39.456Z,13.20
2017-09-13T00:35:06.972Z,13.20
2017-09-13T00:37:33.740Z,13.20
2017-09-13T00:40:00.557Z,13.30
2017-09-13T00:42:27.320Z,13.30
2017-09-13T00:44:53.529Z,13.20
2017-09-13T00:47:19.756Z,13.10
2017-09-13T00:49:45.976Z,13.10
2017-09-13T00:52:12.871Z,13.00
2017-09-13T00:54:40.034Z,12.90
2017-09-13T00:57:06.791Z,12.90
2017-09-13T00:59:33.137Z,12.80
2017-09-13T01:01:59.396Z,12.70
2017-09-13T01:04:26.182Z,12.70
2017-09-13T01:06:53.421Z,12.60
2017-09-13T01:09:20.165Z,12.60
2017-09-13T01:11:47.359Z,12.60
2017-09-13T01:14:13.748Z,12.60
2017-09-13T01:16:39.935Z,12.70
2017-09-13T01:19:06.781Z,12.70
2017-09-13T01:21:33.009Z,12.70
2017-09-13T01:23:59.680Z,12.80
2017-09-13T01:26:25.906Z,12.80
2017-09-13T01:28:53.228Z,12.80
2017-09-13T01:31:19.988Z,12.80
2017-09-13T01:33:47.564Z,12.70
2017-09-13T01:36:14.160Z,12.70
2017-09-13T01:38:41.104Z,12.70
2017-09-13T01:41:07.304Z,12.70
2017-09-13T01:43:34.232Z,12.70
2017-09-13T01:46:01.391Z,12.70
2017-09-13T01:48:27.608Z,12.80
2017-09-13T01:50:54.637Z,12.70
2017-09-13T01:53:21.156Z,12.70
2017-09-13T01:55:48.220Z,12.70
2017-09-13T01:58:14.432Z,12.70
2017-09-13T02:00:42.098Z,12.60
2017-09-13T02:03:08.809Z,12.60
2017-09-13T02:05:35.807Z,12.40
2017-09-13T02:08:03.067Z,12.40
2017-09-13T02:10:29.255Z,12.50
2017-09-13T02:12:56.207Z,12.40
2017-09-13T02:15:23.808Z,12.50
2017-09-13T02:17:51.151Z,12.50
2017-09-13T02:20:18.981Z,12.50
2017-09-13T02:22:47.158Z,12.50
2017-09-13T02:25:15.258Z,12.50
2017-09-13T02:27:42.225Z,12.40
2017-09-13T02:30:09.277Z,12.30
2017-09-13T02:32:36.472Z,12.20
2017-09-13T02:35:03.429Z,12.10
2017-09-13T02:37:30.685Z,12.00
2017-09-13T02:39:56.869Z,12.00
2017-09-13T02:42:23.273Z,11.80
2017-09-13T02:44:50.269Z,11.80
2017-09-13T02:47:18.082Z,11.80
2017-09-13T02:49:44.775Z,11.70
2017-09-13T02:52:11.269Z,11.90
2017-09-13T02:54:37.850Z,11.90
2017-09-13T02:57:04.076Z,11.90
2017-09-13T02:59:31.172Z,11.80
2017-09-13T03:01:57.910Z,11.80
2017-09-13T03:04:24.147Z,11.90
2017-09-13T03:06:51.595Z,11.90
2017-09-13T03:09:18.361Z,11.90
2017-09-13T03:11:44.540Z,11.70
2017-09-13T03:14:10.758Z,11.60
2017-09-13T03:16:36.965Z,11.60
2017-09-13T03:19:03.941Z,11.50
2017-09-13T03:21:30.847Z,11.50
2017-09-13T03:23:58.320Z,11.60
2017-09-13T03:26:25.268Z,11.60
2017-09-13T03:28:51.479Z,11.60
2017-09-13T03:31:19.066Z,11.60
2017-09-13T03:33:45.858Z,11.60
2017-09-13T03:36:12.084Z,11.60
2017-09-13T03:38:38.288Z,11.60
2017-09-13T03:41:04.490Z,11.60
2017-09-13T03:43:31.384Z,11.70
2017-09-13T03:45:58.168Z,11.60
2017-09-13T03:48:24.375Z,11.60
2017-09-13T03:50:52.140Z,11.50
2017-09-13T03:53:19.112Z,11.50
2017-09-13T03:55:45.293Z,11.40
2017-09-13T03:58:11.521Z,11.40
2017-09-13T04:00:38.506Z,11.40
2017-09-13T04:03:05.552Z,11.50
2017-09-13T04:05:31.756Z,11.40
2017-09-13T04:07:58.920Z,11.50
2017-09-13T04:10:29.166Z,11.40
2017-09-13T04:12:55.884Z,11.40
2017-09-13T04:15:22.117Z,11.40
2017-09-13T04:17:48.819Z,11.40
2017-09-13T04:20:15.561Z,11.40
2017-09-13T04:22:42.277Z,11.40
2017-09-13T04:25:09.494Z,11.40
2017-09-13T04:27:36.263Z,11.30
2017-09-13T04:30:03.234Z,11.20
2017-09-13T04:32:29.979Z,11.00
2017-09-13T04:34:56.156Z,10.90
2017-09-13T04:37:23.006Z,10.90
2017-09-13T04:39:49.208Z,11.00
2017-09-13T04:42:15.530Z,11.10
2017-09-13T04:44:42.868Z,10.90
2017-09-13T04:47:09.471Z,10.80
2017-09-13T04:49:35.681Z,10.80
2017-09-13T04:52:01.889Z,10.90
2017-09-13T04:54:28.109Z,10.90
2017-09-13T04:56:54.337Z,10.90
2017-09-13T04:59:20.608Z,11.00
2017-09-13T05:01:49.496Z,10.90
2017-09-13T05:04:15.925Z,10.80
2017-09-13T05:06:42.123Z,10.80
2017-09-13T05:09:08.338Z,10.70
2017-09-13T05:11:35.106Z,10.70
2017-09-13T05:14:01.368Z,10.60
2017-09-13T05:16:27.618Z,10.80
2017-09-13T05:18:54.869Z,10.80
2017-09-13T05:21:22.834Z,10.90
2017-09-13T05:23:49.822Z,10.90
2017-09-13T05:26:16.170Z,10.90
2017-09-13T05:28:42.369Z,11.00
2017-09-13T05:31:08.860Z,11.00
2017-09-13T05:33:36.440Z,11.20
2017-09-13T05:36:03.577Z,11.50
2017-09-13T05:38:30.559Z,11.80
2017-09-13T05:40:58.006Z,11.80
2017-09-13T05:43:24.742Z,12.00
2017-09-13T05:45:50.986Z,12.20
2017-09-13T05:48:18.152Z,12.50
2017-09-13T05:50:44.939Z,12.60
2017-09-13T05:53:12.016Z,12.60
2017-09-13T05:55:39.059Z,12.60
2017-09-13T05:58:06.020Z,12.60
2017-09-13T06:00:32.767Z,12.60
2017-09-13T06:02:58.972Z,12.80
2017-09-13T06:05:25.180Z,13.10
2017-09-13T06:07:52.187Z,14.10
2017-09-13T06:10:18.390Z,14.10
2017-09-13T06:12:45.640Z,14.50
2017-09-13T06:15:11.873Z,14.90
2017-09-13T06:17:38.328Z,15.30
2017-09-13T06:20:06.857Z,15.80
2017-09-13T06:22:34.327Z,16.10
2017-09-13T06:25:00.592Z,16.00
2017-09-13T06:27:26.830Z,15.90
2017-09-13T06:29:53.034Z,15.80
2017-09-13T06:32:19.507Z,15.80
2017-09-13T06:34:47.136Z,15.60
2017-09-13T06:37:15.127Z,15.60
2017-09-13T06:39:41.901Z,15.40
2017-09-13T06:42:08.860Z,15.70
2017-09-13T06:44:35.142Z,15.70
2017-09-13T06:47:01.637Z,16.00
2017-09-13T06:49:28.365Z,16.20
2017-09-13T06:51:55.634Z,16.50
2017-09-13T06:54:22.424Z,16.70
2017-09-13T06:56:49.159Z,16.70
2017-09-13T06:59:15.377Z,16.60
2017-09-13T07:01:42.017Z,16.40
2017-09-13T07:04:08.770Z,16.40
2017-09-13T07:06:35.538Z,16.20
2017-09-13T07:09:01.778Z,16.10
2017-09-13T07:11:27.999Z,15.80
2017-09-13T07:13:54.791Z,15.60
2017-09-13T07:16:21.739Z,15.10
2017-09-13T07:18:50.035Z,15.20
2017-09-13T07:31:02.105Z,14.90
2017-09-13T07:33:32.430Z,14.90
2017-09-13T07:36:00.467Z,14.80
2017-09-13T07:38:26.671Z,14.80
2017-09-13T07:40:52.901Z,15.00
2017-09-13T07:43:19.131Z,15.40
2017-09-13T07:45:45.844Z,15.80
2017-09-13T07:48:14.007Z,16.20
2017-09-13T07:50:41.798Z,16.20
2017-09-13T07:53:09.665Z,16.40
2017-09-13T07:55:37.351Z,16.50
2017-09-13T07:58:04.165Z,16.50
2017-09-13T08:00:31.177Z,16.60
2017-09-13T08:02:59.008Z,16.70
2017-09-13T08:05:25.249Z,16.70
2017-09-13T08:07:51.550Z,16.70
2017-09-13T08:10:18.310Z,16.60
2017-09-13T08:12:44.713Z,16.40
2017-09-13T08:15:12.375Z,16.40
2017-09-13T08:17:38.571Z,16.40
2017-09-13T08:20:04.814Z,16.50
2017-09-13T08:22:31.062Z,16.50
2017-09-13T08:24:57.287Z,16.60
2017-09-13T08:27:24.183Z,16.60
2017-09-13T08:29:51.726Z,16.50
2017-09-13T08:32:18.762Z,16.50
2017-09-13T08:34:45.023Z,16.60
2017-09-13T08:37:12.274Z,16.70
2017-09-13T08:39:39.058Z,16.60
2017-09-13T08:42:05.285Z,16.70
2017-09-13T08:44:31.496Z,16.50
2017-09-13T08:46:57.686Z,16.40
2017-09-13T08:49:24.950Z,16.40
2017-09-13T08:51:51.156Z,16.40
2017-09-13T08:54:18.063Z,16.60
2017-09-13T08:56:46.093Z,16.60
2017-09-13T08:59:13.087Z,16.60
2017-09-13T09:01:39.849Z,16.60
2017-09-13T09:04:07.451Z,16.20
2017-09-13T09:06:34.212Z,16.20
2017-09-13T09:09:03.441Z,16.30
2017-09-13T09:11:29.650Z,16.20
2017-09-13T09:13:55.888Z,16.30
2017-09-13T09:16:22.127Z,16.30
2017-09-13T09:18:48.333Z,16.30
2017-09-13T09:21:14.601Z,16.20
2017-09-13T09:23:42.166Z,16.10
2017-09-13T09:26:09.139Z,16.10
2017-09-13T09:28:35.327Z,16.10
2017-09-13T09:31:01.536Z,16.10
2017-09-13T09:33:27.715Z,16.10
2017-09-13T09:35:53.959Z,16.00
2017-09-13T09:38:20.196Z,15.90
2017-09-13T09:40:46.927Z,15.90
2017-09-13T09:43:13.675Z,15.80
2017-09-13T09:45:40.794Z,15.80
2017-09-13T09:48:08.057Z,15.60
2017-09-13T09:50:34.772Z,15.50
2017-09-13T09:53:01.765Z,15.10
2017-09-13T09:55:28.495Z,15.10
2017-09-13T09:58:01.556Z,14.90
2017-09-13T10:00:27.754Z,14.80
2017-09-13T10:02:54.860Z,14.80
2017-09-13T10:05:28.125Z,14.70
2017-09-13T10:07:54.332Z,14.50
2017-09-13T10:10:21.425Z,14.40
2017-09-13T10:12:49.205Z,14.40
2017-09-13T10:15:15.415Z,14.30
2017-09-13T10:17:42.264Z,14.10
2017-09-13T10:20:08.502Z,14.00
2017-09-13T10:22:34.819Z,14.00
2017-09-13T10:25:01.040Z,14.00
2017-09-13T10:27:27.278Z,13.90
2017-09-13T10:29:53.478Z,13.80
2017-09-13T10:32:20.245Z,13.70
2017-09-13T10:34:46.984Z,13.70
2017-09-13T10:37:13.212Z,13.70
2017-09-13T10:39:39.994Z,13.70
2017-09-13T10:42:06.737Z,13.60
2017-09-13T10:44:34.259Z,13.70
2017-09-13T10:47:00.485Z,13.70
2017-09-13T10:49:26.712Z,13.70
2017-09-13T10:51:53.400Z,13.70
2017-09-13T10:54:20.670Z,13.60
2017-09-13T10:56:47.445Z,13.60
2017-09-13T10:59:14.761Z,13.70
2017-09-13T11:01:41.009Z,13.80
2017-09-13T11:04:07.489Z,13.80
2017-09-13T11:06:34.446Z,13.90
2017-09-13T11:09:01.927Z,13.80
2017-09-13T11:11:28.140Z,13.80
2017-09-13T11:13:54.668Z,13.90
2017-09-13T11:16:21.708Z,13.90
2017-09-13T11:18:48.649Z,13.80
2017-09-13T11:21:15.299Z,13.80
2017-09-13T11:23:42.275Z,14.00
2017-09-13T11:26:08.483Z,13.90
2017-09-13T11:28:35.193Z,14.00
2017-09-13T11:31:01.381Z,14.00
2017-09-13T11:33:27.838Z,14.00
2017-09-13T11:36:01.976Z,13.90
2017-09-13T11:38:28.945Z,13.90
2017-09-13T11:40:55.542Z,13.90
2017-09-13T11:43:22.536Z,13.90
2017-09-13T11:45:49.185Z,13.90
2017-09-13T11:48:15.851Z,14.00
2017-09-13T11:50:42.898Z,13.90
2017-09-13T11:53:10.190Z,13.90
2017-09-13T11:55:37.183Z,13.70
2017-09-13T11:58:03.396Z,13.70
2017-09-13T12:00:30.616Z,13.70
2017-09-13T12:02:57.596Z,13.70
2017-09-13T12:05:24.552Z,13.70
2017-09-13T12:07:51.787Z,13.60
2017-09-13T12:10:19.131Z,13.60
2017-09-13T12:12:45.364Z,13.50
2017-09-13T12:15:11.797Z,13.50
2017-09-13T12:17:38.017Z,13.60
2017-09-13T12:20:05.186Z,13.60
2017-09-13T12:22:31.397Z,13.70
2017-09-13T12:24:57.622Z,13.70
2017-09-13T12:27:23.858Z,13.80
2017-09-13T12:29:50.809Z,14.00
2017-09-13T12:32:18.514Z,14.20
2017-09-13T12:34:44.936Z,14.20
2017-09-13T12:37:12.450Z,14.30
2017-09-13T12:39:39.198Z,14.30
2017-09-13T12:42:06.102Z,14.40
2017-09-13T12:44:33.053Z,14.60
2017-09-13T12:47:00.021Z,14.70
2017-09-13T12:49:26.380Z,14.70
2017-09-13T12:51:53.079Z,14.70
2017-09-13T12:54:20.596Z,15.00
2017-09-13T12:56:47.203Z,15.00
2017-09-13T12:59:16.108Z,15.20
2017-09-13T13:01:42.877Z,15.20
2017-09-13T13:04:09.107Z,15.30
2017-09-13T13:06:36.360Z,15.40
2017-09-13T13:09:03.176Z,15.60
2017-09-13T13:11:30.920Z,15.60
2017-09-13T13:13:57.145Z,15.60
2017-09-13T13:16:23.724Z,15.70
2017-09-13T13:18:51.246Z,15.60
2017-09-13T13:21:18.465Z,15.70
2017-09-13T13:23:45.234Z,15.60
2017-09-13T13:26:11.998Z,15.50
2017-09-13T13:28:38.212Z,15.50
2017-09-13T13:31:05.409Z,15.50
2017-09-13T13:33:32.536Z,15.70
2017-09-13T13:36:00.808Z,15.70
2017-09-13T13:38:28.830Z,15.80
2017-09-13T13:40:55.825Z,15.80
2017-09-13T13:43:22.547Z,15.90
2017-09-13T13:45:49.366Z,16.00
2017-09-13T13:48:15.628Z,16.10
2017-09-13T13:50:41.839Z,16.20
2017-09-13T13:53:08.912Z,16.50
2017-09-13T13:55:35.516Z,16.80
2017-09-13T13:58:02.571Z,17.20
2017-09-13T14:00:28.800Z,17.20
2017-09-13T14:02:55.683Z,17.40
2017-09-13T14:05:22.661Z,18.10
2017-09-13T14:07:48.896Z,18.00
2017-09-13T14:10:15.130Z,18.20
2017-09-13T14:12:41.953Z,18.30
2017-09-13T14:15:08.211Z,18.50
2017-09-13T14:17:34.943Z,18.60
2017-09-13T14:20:01.169Z,18.70
2017-09-13T14:22:27.668Z,18.70
2017-09-13T14:24:55.143Z,18.70
2017-09-13T14:27:22.338Z,18.70
2017-09-13T14:29:50.085Z,18.70
2017-09-13T14:32:16.326Z,18.70
2017-09-13T14:34:42.966Z,18.80
2017-09-13T14:37:10.004Z,19.00
2017-09-13T14:39:36.496Z,19.00
2017-09-13T14:42:02.777Z,19.20
2017-09-13T14:44:29.604Z,19.40
2017-09-13T14:46:56.155Z,19.50
2017-09-13T14:49:22.415Z,19.50
2017-09-13T14:51:50.007Z,19.40
2017-09-13T14:54:16.840Z,19.40
2017-09-13T14:56:43.399Z,19.40
2017-09-13T14:59:10.960Z,19.20
2017-09-13T15:01:37.172Z,19.20
2017-09-13T15:04:03.435Z,19.10
2017-09-13T15:06:29.629Z,19.10
2017-09-13T15:08:55.871Z,19.00
2017-09-13T15:11:22.086Z,19.00
2017-09-13T15:13:49.014Z,18.90
2017-09-13T15:16:15.264Z,18.90
2017-09-13T15:18:41.943Z,18.80
2017-09-13T15:21:08.185Z,18.80
2017-09-13T15:23:35.196Z,18.60
2017-09-13T15:26:02.165Z,18.40
2017-09-13T15:28:28.603Z,18.40
2017-09-13T15:30:56.586Z,18.40
2017-09-13T15:33:25.104Z,18.40
2017-09-13T15:35:52.616Z,18.40
2017-09-13T15:38:19.025Z,18.40
2017-09-13T15:40:46.604Z,18.40
2017-09-13T15:43:13.583Z,18.40
2017-09-13T15:45:40.491Z,18.40
2017-09-13T15:48:07.858Z,18.40
2017-09-13T15:50:35.322Z,18.40
2017-09-13T15:53:02.817Z,18.30
2017-09-13T15:55:29.037Z,18.30
2017-09-13T15:57:55.877Z,18.30
2017-09-13T16:00:22.621Z,18.40
2017-09-13T16:02:48.871Z,18.40
2017-09-13T16:05:15.596Z,18.40
2017-09-13T16:07:41.903Z,18.40
2017-09-13T16:10:09.121Z,18.40
2017-09-13T16:12:36.056Z,18.40
2017-09-13T16:15:02.284Z,18.40
2017-09-13T16:17:28.709Z,18.50
2017-09-13T16:19:55.749Z,18.50
2017-09-13T16:22:22.034Z,18.50
2017-09-13T16:24:48.518Z,18.50
2017-09-13T16:27:15.695Z,18.50
2017-09-13T16:29:43.328Z,18.50
2017-09-13T16:32:10.827Z,18.50
2017-09-13T16:34:38.564Z,18.50
2017-09-13T16:37:06.361Z,18.50
2017-09-13T16:39:34.048Z,18.50
2017-09-13T16:42:00.267Z,18.40
2017-09-13T16:44:26.519Z,18.40
2017-09-13T16:46:53.065Z,18.40
2017-09-13T16:49:20.250Z,18.40
2017-09-13T16:51:46.658Z,18.40
2017-09-13T16:54:12.853Z,18.50
2017-09-13T16:56:39.656Z,18.40
2017-09-13T16:59:07.516Z,18.40
2017-09-13T17:01:35.413Z,18.40
2017-09-13T17:04:03.378Z,18.40
2017-09-13T17:06:30.512Z,18.40
2017-09-13T17:08:56.732Z,18.40
2017-09-13T17:11:24.218Z,18.50
2017-09-13T17:13:50.792Z,18.40
2017-09-13T17:16:17.028Z,18.40
2017-09-13T17:18:43.804Z,18.40
2017-09-13T17:21:10.597Z,18.40
2017-09-13T17:23:43.901Z,18.40
2017-09-13T17:26:11.700Z,18.50
2017-09-13T17:28:38.879Z,18.40
2017-09-13T17:31:05.880Z,18.40
2017-09-13T17:33:32.903Z,18.40
2017-09-13T17:35:59.825Z,18.40
2017-09-13T17:38:26.079Z,18.40
2017-09-13T17:40:53.289Z,18.40
2017-09-13T17:43:19.496Z,18.40
2017-09-13T17:45:46.395Z,18.30
2017-09-13T17:48:12.876Z,18.30
2017-09-13T17:50:39.136Z,18.20
2017-09-13T17:53:05.673Z,18.20
2017-09-13T17:55:32.389Z,18.20
2017-09-13T17:57:58.590Z,18.20
2017-09-13T18:00:25.604Z,18.30
2017-09-13T18:02:52.398Z,18.30
2017-09-13T18:05:19.240Z,18.30
2017-09-13T18:07:46.005Z,18.30
2017-09-13T18:10:12.268Z,18.30
2017-09-13T18:12:38.487Z,18.30
2017-09-13T18:15:04.754Z,18.20
2017-09-13T18:17:30.986Z,18.10
2017-09-13T18:19:57.853Z,18.10
2017-09-13T18:22:25.583Z,18.00
2017-09-13T18:24:52.770Z,17.90
2017-09-13T18:27:19.802Z,17.90
2017-09-13T18:29:46.040Z,17.90
2017-09-13T18:32:13.977Z,17.80
2017-09-13T18:34:41.523Z,17.50
2017-09-13T18:37:08.591Z,17.30
2017-09-13T18:39:35.476Z,17.20
2017-09-13T18:42:02.221Z,17.10
2017-09-13T18:44:29.309Z,17.20
2017-09-13T18:46:56.373Z,17.10
2017-09-13T18:49:23.364Z,17.00
2017-09-13T18:51:51.165Z,17.10
2017-09-13T18:54:18.815Z,16.90
2017-09-13T18:56:45.824Z,17.00
2017-09-13T18:59:12.030Z,17.00
2017-09-13T19:01:38.258Z,17.00
2017-09-13T19:04:04.501Z,17.10
2017-09-13T19:06:30.749Z,16.90
2017-09-13T19:08:56.964Z,16.80
2017-09-13T19:11:23.181Z,16.80
2017-09-13T19:13:50.050Z,16.70
2017-09-13T19:16:16.289Z,16.80
2017-09-13T19:18:44.108Z,16.90
2017-09-13T19:21:10.878Z,16.90
2017-09-13T19:23:38.982Z,16.80
2017-09-13T19:26:06.226Z,16.80
2017-09-13T19:28:33.192Z,16.80
2017-09-13T19:31:00.694Z,16.80
2017-09-13T19:33:27.242Z,16.80
2017-09-13T19:35:53.460Z,16.80
2017-09-13T19:38:20.673Z,16.90
2017-09-13T19:40:47.440Z,17.00
2017-09-13T19:43:13.674Z,17.00
2017-09-13T19:45:40.287Z,17.00
2017-09-13T19:48:07.071Z,17.00
2017-09-13T19:50:33.303Z,17.00
2017-09-13T19:52:59.552Z,17.00
2017-09-13T19:55:27.317Z,17.00
2017-09-13T19:57:55.261Z,17.00
2017-09-13T20:00:21.956Z,17.00
2017-09-13T20:02:49.099Z,17.00
2017-09-13T20:05:16.913Z,17.00
2017-09-13T20:07:43.179Z,17.00
2017-09-13T20:10:10.856Z,17.00
2017-09-13T20:12:37.096Z,17.00
2017-09-13T20:15:03.932Z,17.20
2017-09-13T20:17:30.773Z,17.40
2017-09-13T20:19:57.668Z,17.50
2017-09-13T20:22:24.411Z,17.50
2017-09-13T20:24:51.401Z,17.60
2017-09-13T20:27:18.172Z,17.60
2017-09-13T20:29:45.184Z,17.70
2017-09-13T20:32:11.990Z,17.60
2017-09-13T20:34:38.180Z,17.60
2017-09-13T20:37:05.841Z,17.60
2017-09-13T20:39:33.332Z,17.50
2017-09-13T20:41:59.820Z,17.50
2017-09-13T20:44:26.249Z,17.40
2017-09-13T20:46:52.464Z,17.30
2017-09-13T20:49:18.966Z,17.30
2017-09-13T20:51:45.923Z,17.30
2017-09-13T20:54:13.838Z,17.30
2017-09-13T20:56:40.264Z,17.20
2017-09-13T20:59:07.098Z,17.20
2017-09-13T21:01:33.528Z,17.20
2017-09-13T21:04:00.582Z,17.10
2017-09-13T21:06:27.404Z,17.00
2017-09-13T21:08:54.890Z,16.90
2017-09-13T21:11:22.828Z,16.80
2017-09-13T21:13:49.559Z,16.80
2017-09-13T21:16:17.143Z,16.80
2017-09-13T21:18:44.895Z,16.80
2017-09-13T21:21:13.755Z,16.80
2017-09-13T21:23:41.272Z,16.80
2017-09-13T21:26:08.229Z,16.80
2017-09-13T21:28:34.452Z,16.80
2017-09-13T21:31:00.960Z,16.70
2017-09-13T21:33:27.152Z,16.80
2017-09-13T21:35:54.447Z,16.80
2017-09-13T21:38:21.956Z,16.70
2017-09-13T21:40:50.040Z,16.80
2017-09-13T21:43:16.998Z,16.80
2017-09-13T21:45:44.203Z,16.80
2017-09-13T21:48:11.695Z,16.80
2017-09-13T21:50:38.632Z,16.80
2017-09-13T21:53:05.597Z,16.90
2017-09-13T21:55:31.991Z,16.80
2017-09-13T21:57:59.257Z,16.80
2017-09-13T22:00:26.226Z,16.80
2017-09-13T22:02:52.485Z,16.70
2017-09-13T22:05:19.013Z,16.80
2017-09-13T22:07:46.089Z,16.70
2017-09-13T22:10:13.652Z,16.70
2017-09-13T22:12:40.629Z,16.80
2017-09-13T22:15:07.600Z,16.80
2017-09-13T22:17:33.830Z,16.80
2017-09-13T22:20:00.061Z,16.80
2017-09-13T22:22:27.265Z,16.80
2017-09-13T22:24:55.549Z,16.80
2017-09-13T22:27:23.758Z,16.80
2017-09-13T22:29:50.791Z,16.80
2017-09-13T22:32:17.237Z,16.80
2017-09-13T22:34:43.481Z,16.80
2017-09-13T22:37:10.341Z,16.80
2017-09-13T22:39:37.288Z,16.80
2017-09-13T22:42:04.034Z,16.70
2017-09-13T22:44:31.008Z,16.70
2017-09-13T22:46:59.441Z,16.70
2017-09-13T22:49:25.850Z,16.70
2017-09-13T22:51:52.723Z,16.70
2017-09-13T22:54:18.931Z,16.70
2017-09-13T22:56:45.141Z,16.70
2017-09-13T22:59:12.424Z,16.70
2017-09-13T23:01:40.915Z,16.60
2017-09-13T23:04:09.177Z,16.60
2017-09-13T23:06:36.112Z,16.60
2017-09-13T23:09:02.343Z,16.60
2017-09-13T23:11:30.113Z,16.60
2017-09-13T23:13:56.525Z,16.60
2017-09-13T23:16:23.612Z,16.60
2017-09-13T23:18:56.843Z,16.60
2017-09-13T23:21:23.732Z,16.60
2017-09-13T23:23:50.736Z,16.50
2017-09-13T23:26:16.945Z,16.60
2017-09-13T23:28:44.584Z,16.60
2017-09-13T23:31:11.041Z,16.60
2017-09-13T23:33:38.325Z,16.70
2017-09-13T23:36:04.533Z,16.70
2017-09-13T23:38:32.552Z,16.60
2017-09-13T23:41:00.349Z,16.60
2017-09-13T23:43:27.785Z,16.60
2017-09-13T23:45:54.011Z,16.50
2017-09-13T23:48:20.424Z,16.50
2017-09-13T23:50:47.189Z,16.60
2017-09-13T23:53:13.960Z,16.60
2017-09-13T23:55:40.907Z,16.70
2017-09-13T23:58:07.363Z,16.60
